createdAt,value
2018-09-26T00:00:51.932Z,22.20
2018-09-26T00:03:54.418Z,22.30
2018-09-26T00:06:20.912Z,22.30
2018-09-26T00:08:47.481Z,22.20
2018-09-26T00:11:14.027Z,22.20
2018-09-26T00:13:40.518Z,22.20
2018-09-26T00:16:07.008Z,22.20
2018-09-26T00:18:33.513Z,22.20
2018-09-26T00:20:59.970Z,22.20
2018-09-26T00:23:26.420Z,22.20
2018-09-26T00:25:52.912Z,22.20
2018-09-26T00:28:19.383Z,22.20
2018-09-26T00:30:45.857Z,22.20
2018-09-26T00:33:12.309Z,22.20
2018-09-26T00:35:38.837Z,22.20
2018-09-26T00:38:05.230Z,22.20
2018-09-26T00:40:31.778Z,22.20
2018-09-26T00:42:58.278Z,22.20
2018-09-26T00:45:24.738Z,22.20
2018-09-26T00:47:51.232Z,22.20
2018-09-26T00:50:17.708Z,22.20
2018-09-26T00:52:44.444Z,22.20
2018-09-26T00:55:10.909Z,22.20
2018-09-26T00:57:37.376Z,22.20
2018-09-26T01:00:03.848Z,22.20
2018-09-26T01:02:30.290Z,22.20
2018-09-26T01:04:56.785Z,22.20
2018-09-26T01:07:23.240Z,22.20
2018-09-26T01:09:49.759Z,22.20
2018-09-26T01:12:16.222Z,22.20
2018-09-26T01:14:43.158Z,22.20
2018-09-26T01:17:09.645Z,22.20
2018-09-26T01:19:36.114Z,22.10
2018-09-26T01:22:02.597Z,22.10
2018-09-26T01:24:29.084Z,22.10
2018-09-26T01:26:55.554Z,22.10
2018-09-26T01:29:22.024Z,22.10
2018-09-26T01:31:48.603Z,22.10
2018-09-26T01:34:15.066Z,22.10
2018-09-26T01:36:41.515Z,22.20
2018-09-26T01:39:08.683Z,22.10
2018-09-26T01:41:35.189Z,22.10
2018-09-26T01:44:01.622Z,22.10
2018-09-26T01:46:28.081Z,22.10
2018-09-26T01:48:54.533Z,22.10
2018-09-26T01:51:20.993Z,22.10
2018-09-26T01:53:47.458Z,22.10
2018-09-26T01:56:13.935Z,22.10
2018-09-26T01:58:40.398Z,22.10
2018-09-26T02:01:06.883Z,22.10
2018-09-26T02:03:33.351Z,22.10
2018-09-26T02:05:59.843Z,22.10
2018-09-26T02:08:26.293Z,22.10
2018-09-26T02:10:52.769Z,22.10
2018-09-26T02:13:19.226Z,22.10
2018-09-26T02:15:45.721Z,22.10
2018-09-26T02:18:12.217Z,22.10
2018-09-26T02:20:38.709Z,22.10
2018-09-26T02:23:05.269Z,22.10
2018-09-26T02:25:31.717Z,22.10
2018-09-26T02:27:58.272Z,22.10
2018-09-26T02:30:24.745Z,22.00
2018-09-26T02:32:51.229Z,22.00
2018-09-26T02:35:17.839Z,22.10
2018-09-26T02:37:44.299Z,22.10
2018-09-26T02:40:10.752Z,22.10
2018-09-26T02:42:37.216Z,22.00
2018-09-26T02:45:03.697Z,22.00
2018-09-26T02:47:30.145Z,22.00
2018-09-26T02:49:56.607Z,22.00
2018-09-26T02:52:23.111Z,22.00
2018-09-26T02:54:49.638Z,22.00
2018-09-26T02:57:16.151Z,21.50
2018-09-26T02:59:42.648Z,22.00
2018-09-26T03:02:09.107Z,22.00
2018-09-26T03:04:35.579Z,22.00
2018-09-26T03:07:02.023Z,22.00
2018-09-26T03:09:28.489Z,22.00
2018-09-26T03:11:54.938Z,22.00
2018-09-26T03:14:21.367Z,22.00
2018-09-26T03:16:47.865Z,22.00
2018-09-26T03:19:14.325Z,22.00
2018-09-26T03:21:40.811Z,22.00
2018-09-26T03:24:07.291Z,22.00
2018-09-26T03:26:33.750Z,22.00
2018-09-26T03:29:00.203Z,22.00
2018-09-26T03:31:26.679Z,22.00
2018-09-26T03:33:53.308Z,22.00
2018-09-26T03:36:19.681Z,22.00
2018-09-26T03:38:46.178Z,22.00
2018-09-26T03:41:12.632Z,22.00
2018-09-26T03:43:39.076Z,21.90
2018-09-26T03:46:05.816Z,21.90
2018-09-26T03:48:32.298Z,22.00
2018-09-26T03:50:58.756Z,22.00
2018-09-26T03:53:25.210Z,22.00
2018-09-26T03:55:51.674Z,22.00
2018-09-26T03:58:18.152Z,22.00
2018-09-26T04:00:44.656Z,22.00
2018-09-26T04:03:11.125Z,21.90
2018-09-26T04:05:37.590Z,22.00
2018-09-26T04:08:04.062Z,21.90
2018-09-26T04:10:30.494Z,21.90
2018-09-26T04:12:56.989Z,21.90
2018-09-26T04:15:23.411Z,21.90
2018-09-26T04:17:49.856Z,21.90
2018-09-26T04:20:16.358Z,21.90
2018-09-26T04:22:42.844Z,21.90
2018-09-26T04:25:09.272Z,21.90
2018-09-26T04:27:35.801Z,21.90
2018-09-26T04:30:02.292Z,21.90
2018-09-26T04:32:28.856Z,21.90
2018-09-26T04:34:55.313Z,21.90
2018-09-26T04:37:21.764Z,21.90
2018-09-26T04:39:48.217Z,21.90
2018-09-26T04:42:14.694Z,21.90
2018-09-26T04:44:41.541Z,21.90
2018-09-26T04:47:08.038Z,21.90
2018-09-26T04:49:34.510Z,21.90
2018-09-26T04:52:00.974Z,21.90
2018-09-26T04:54:27.423Z,21.90
2018-09-26T04:56:53.910Z,21.90
2018-09-26T04:59:20.358Z,21.90
2018-09-26T05:01:46.835Z,21.90
2018-09-26T05:04:13.321Z,22.00
2018-09-26T05:06:39.804Z,22.00
2018-09-26T05:09:06.344Z,22.00
2018-09-26T05:11:32.866Z,21.90
2018-09-26T05:13:59.450Z,22.00
2018-09-26T05:16:25.924Z,22.00
2018-09-26T05:18:52.392Z,22.00
2018-09-26T05:21:18.888Z,22.00
2018-09-26T05:23:45.653Z,22.00
2018-09-26T05:26:12.119Z,22.00
2018-09-26T05:28:38.577Z,22.00
2018-09-26T05:31:05.073Z,22.00
2018-09-26T05:33:31.597Z,21.90
2018-09-26T05:35:58.032Z,21.90
2018-09-26T05:38:24.507Z,21.90
2018-09-26T05:40:50.962Z,21.90
2018-09-26T05:43:17.454Z,21.90
2018-09-26T05:45:43.945Z,21.90
2018-09-26T05:48:10.402Z,21.90
2018-09-26T05:50:36.874Z,21.90
2018-09-26T05:53:03.377Z,21.90
2018-09-26T05:55:29.877Z,21.90
2018-09-26T05:57:56.340Z,21.90
2018-09-26T06:00:22.794Z,21.90
2018-09-26T06:02:49.246Z,21.90
2018-09-26T06:05:15.741Z,21.90
2018-09-26T06:07:42.204Z,21.90
2018-09-26T06:10:08.685Z,21.90
2018-09-26T06:12:35.181Z,21.80
2018-09-26T06:15:01.661Z,21.80
2018-09-26T06:17:28.148Z,21.90
2018-09-26T06:19:54.605Z,21.80
2018-09-26T06:22:21.056Z,21.90
2018-09-26T06:24:47.565Z,21.80
2018-09-26T06:27:14.019Z,21.80
2018-09-26T06:29:40.498Z,21.80
2018-09-26T06:32:06.961Z,21.80
2018-09-26T06:34:33.683Z,21.80
2018-09-26T06:37:00.158Z,21.80
2018-09-26T06:39:26.610Z,21.80
2018-09-26T06:41:53.039Z,21.80
2018-09-26T06:44:19.522Z,21.80
2018-09-26T06:46:46.043Z,21.80
2018-09-26T06:49:12.479Z,21.80
2018-09-26T06:51:38.949Z,21.80
2018-09-26T06:54:05.650Z,21.80
2018-09-26T06:56:32.228Z,21.80
2018-09-26T06:58:58.718Z,21.80
2018-09-26T07:01:25.201Z,21.80
2018-09-26T07:03:51.691Z,21.80
2018-09-26T07:06:18.281Z,21.80
2018-09-26T07:08:44.834Z,21.80
2018-09-26T07:11:11.314Z,21.80
2018-09-26T07:13:37.784Z,21.80
2018-09-26T07:16:04.309Z,21.80
2018-09-26T07:18:30.777Z,21.80
2018-09-26T07:20:57.234Z,21.80
2018-09-26T07:23:23.703Z,21.80
2018-09-26T07:25:50.191Z,21.80
2018-09-26T07:28:16.655Z,21.80
2018-09-26T07:30:43.158Z,21.80
2018-09-26T07:33:09.671Z,21.80
2018-09-26T07:35:36.134Z,21.80
2018-09-26T07:38:02.595Z,21.80
2018-09-26T07:40:29.053Z,21.90
2018-09-26T07:42:55.537Z,21.90
2018-09-26T07:45:22.213Z,21.90
2018-09-26T07:47:48.677Z,21.90
2018-09-26T07:50:15.142Z,21.90
2018-09-26T07:52:41.595Z,21.90
2018-09-26T07:55:08.081Z,21.90
2018-09-26T07:57:34.555Z,21.90
2018-09-26T08:00:01.064Z,21.90
2018-09-26T08:02:27.563Z,21.90
2018-09-26T08:04:54.142Z,21.90
2018-09-26T08:07:20.641Z,22.00
2018-09-26T08:09:47.083Z,21.90
2018-09-26T08:12:13.563Z,22.00
2018-09-26T08:14:40.008Z,22.00
2018-09-26T08:17:06.457Z,22.00
2018-09-26T08:19:32.967Z,22.00
2018-09-26T08:21:59.418Z,22.00
2018-09-26T08:24:25.908Z,22.00
2018-09-26T08:26:52.354Z,22.00
2018-09-26T08:29:18.870Z,22.00
2018-09-26T08:31:45.361Z,22.10
2018-09-26T08:34:11.838Z,22.10
2018-09-26T08:36:38.371Z,22.00
2018-09-26T08:39:04.826Z,22.00
2018-09-26T08:41:31.278Z,22.10
2018-09-26T08:43:57.869Z,22.10
2018-09-26T08:46:24.347Z,22.10
2018-09-26T08:48:50.804Z,22.10
2018-09-26T08:51:17.312Z,22.10
2018-09-26T08:53:43.817Z,22.10
2018-09-26T08:56:10.357Z,22.10
2018-09-26T08:58:36.964Z,22.10
2018-09-26T09:01:03.474Z,22.10
2018-09-26T09:03:30.084Z,22.20
2018-09-26T09:05:56.611Z,22.10
2018-09-26T09:08:23.073Z,22.20
2018-09-26T09:10:49.551Z,22.20
2018-09-26T09:13:16.037Z,22.20
2018-09-26T09:15:42.529Z,22.20
2018-09-26T09:18:09.014Z,22.20
2018-09-26T09:20:35.489Z,22.20
2018-09-26T09:23:02.016Z,22.30
2018-09-26T09:25:28.474Z,22.30
2018-09-26T09:27:55.118Z,22.20
2018-09-26T09:30:21.628Z,22.20
2018-09-26T09:32:48.389Z,22.30
2018-09-26T09:35:14.861Z,22.30
2018-09-26T09:37:41.337Z,22.30
2018-09-26T09:40:07.807Z,22.30
2018-09-26T09:42:34.271Z,22.40
2018-09-26T09:45:00.745Z,22.40
2018-09-26T09:47:27.200Z,22.40
2018-09-26T09:49:53.804Z,22.40
2018-09-26T09:52:20.258Z,22.40
2018-09-26T09:54:46.710Z,22.40
2018-09-26T09:57:13.138Z,22.40
2018-09-26T09:59:39.627Z,22.40
2018-09-26T10:02:06.143Z,22.40
2018-09-26T10:04:32.625Z,22.50
2018-09-26T10:06:59.173Z,22.50
2018-09-26T10:09:25.653Z,22.50
2018-09-26T10:11:52.112Z,22.50
2018-09-26T10:14:18.652Z,22.50
2018-09-26T10:16:45.099Z,22.50
2018-09-26T10:19:11.581Z,22.50
2018-09-26T10:21:38.168Z,22.50
2018-09-26T10:24:04.650Z,22.50
2018-09-26T10:26:31.132Z,22.50
2018-09-26T10:28:57.589Z,22.50
2018-09-26T10:31:24.085Z,22.50
2018-09-26T10:33:50.548Z,22.50
2018-09-26T10:36:17.027Z,22.50
2018-09-26T10:38:43.644Z,22.50
2018-09-26T10:41:10.109Z,22.50
2018-09-26T10:43:36.705Z,22.50
2018-09-26T10:46:03.211Z,22.50
2018-09-26T10:48:29.685Z,22.50
2018-09-26T10:50:56.177Z,22.50
2018-09-26T10:53:22.633Z,22.50
2018-09-26T10:55:49.085Z,22.50
2018-09-26T10:58:15.547Z,22.60
2018-09-26T11:00:42.038Z,22.50
2018-09-26T11:03:08.573Z,22.60
2018-09-26T11:05:35.045Z,22.50
2018-09-26T11:08:01.533Z,22.50
2018-09-26T11:10:28.126Z,22.50
2018-09-26T11:12:54.617Z,22.50
2018-09-26T11:15:21.136Z,22.50
2018-09-26T11:17:47.727Z,22.50
2018-09-26T11:20:14.221Z,22.50
2018-09-26T11:22:40.651Z,22.50
2018-09-26T11:25:07.154Z,22.60
2018-09-26T11:27:33.656Z,22.60
2018-09-26T11:30:00.118Z,22.60
2018-09-26T11:32:26.685Z,22.60
2018-09-26T11:34:53.421Z,22.60
2018-09-26T11:37:19.887Z,22.60
2018-09-26T11:39:46.368Z,22.50
2018-09-26T11:42:12.847Z,22.50
2018-09-26T11:44:39.851Z,22.50
2018-09-26T11:47:06.302Z,22.50
2018-09-26T11:49:32.770Z,22.50
2018-09-26T11:51:59.247Z,22.50
2018-09-26T11:54:26.043Z,22.50
2018-09-26T11:56:52.629Z,22.50
2018-09-26T11:59:19.141Z,22.50
2018-09-26T12:01:45.588Z,22.50
2018-09-26T12:04:12.071Z,22.50
2018-09-26T12:06:38.577Z,22.50
2018-09-26T12:09:05.054Z,22.40
2018-09-26T12:11:31.533Z,22.40
2018-09-26T12:13:58.070Z,22.40
2018-09-26T12:16:24.481Z,22.40
2018-09-26T12:18:50.895Z,22.40
2018-09-26T12:21:17.407Z,22.40
2018-09-26T12:23:43.959Z,22.40
2018-09-26T12:26:10.438Z,22.40
2018-09-26T12:28:36.982Z,22.40
2018-09-26T12:31:03.434Z,22.40
2018-09-26T12:33:30.057Z,22.40
2018-09-26T12:35:56.498Z,22.40
2018-09-26T12:38:22.977Z,22.40
2018-09-26T12:40:49.508Z,22.40
2018-09-26T12:43:16.456Z,22.40
2018-09-26T12:45:42.906Z,22.40
2018-09-26T12:48:09.398Z,22.40
2018-09-26T12:50:35.857Z,22.40
2018-09-26T12:53:02.334Z,22.40
2018-09-26T12:55:28.782Z,22.40
2018-09-26T12:57:55.239Z,22.40
2018-09-26T13:00:21.797Z,22.40
2018-09-26T13:02:48.369Z,22.40
2018-09-26T13:05:14.751Z,22.40
2018-09-26T13:07:41.239Z,22.40
2018-09-26T13:10:07.764Z,22.40
2018-09-26T13:12:34.216Z,22.40
2018-09-26T13:15:00.984Z,22.40
2018-09-26T13:17:27.438Z,22.30
2018-09-26T13:20:03.478Z,22.40
2018-09-26T13:22:29.925Z,22.20
2018-09-26T13:24:56.410Z,22.30
2018-09-26T13:27:22.867Z,22.30
2018-09-26T13:29:49.374Z,22.30
2018-09-26T13:32:15.859Z,22.30
2018-09-26T13:34:42.362Z,22.30
2018-09-26T13:37:08.841Z,22.30
2018-09-26T13:39:35.565Z,22.30
2018-09-26T13:42:01.901Z,22.30
2018-09-26T13:44:28.360Z,22.30
2018-09-26T13:46:54.895Z,22.30
2018-09-26T13:49:21.425Z,22.30
2018-09-26T13:51:47.961Z,22.30
2018-09-26T13:54:14.467Z,22.30
2018-09-26T13:56:40.921Z,22.30
2018-09-26T13:59:07.424Z,22.30
2018-09-26T14:01:33.971Z,22.30
2018-09-26T14:04:00.386Z,22.20
2018-09-26T14:06:26.849Z,22.20
2018-09-26T14:08:53.361Z,22.30
2018-09-26T14:11:19.821Z,22.20
2018-09-26T14:13:46.295Z,22.20
2018-09-26T14:16:12.782Z,22.20
2018-09-26T14:18:39.307Z,22.20
2018-09-26T14:21:05.826Z,22.20
2018-09-26T14:23:32.392Z,22.20
2018-09-26T14:25:58.895Z,22.20
2018-09-26T14:28:25.536Z,22.20
2018-09-26T14:30:52.055Z,22.20
2018-09-26T14:33:18.553Z,22.20
2018-09-26T14:35:45.022Z,22.20
2018-09-26T14:38:11.520Z,22.20
2018-09-26T14:40:37.959Z,22.20
2018-09-26T14:43:04.503Z,22.20
2018-09-26T14:45:31.141Z,22.20
2018-09-26T14:47:57.607Z,22.20
2018-09-26T14:50:24.921Z,22.10
2018-09-26T14:52:51.466Z,22.20
2018-09-26T14:55:17.882Z,22.10
2018-09-26T14:57:44.373Z,22.20
2018-09-26T15:00:10.917Z,22.20
2018-09-26T15:02:37.777Z,22.20
2018-09-26T15:05:04.380Z,22.20
2018-09-26T15:07:30.905Z,22.20
2018-09-26T15:09:57.404Z,22.20
2018-09-26T15:12:23.989Z,22.10
2018-09-26T15:14:50.421Z,22.20
2018-09-26T15:17:16.917Z,22.20
2018-09-26T15:19:43.392Z,22.10
2018-09-26T15:22:09.999Z,22.20
2018-09-26T15:24:36.753Z,22.20
2018-09-26T15:27:03.216Z,22.10
2018-09-26T15:29:29.661Z,22.10
2018-09-26T15:31:56.125Z,22.10
2018-09-26T15:34:22.896Z,22.20
2018-09-26T15:36:49.374Z,22.10
2018-09-26T15:39:15.854Z,22.10
2018-09-26T15:41:42.413Z,22.10
2018-09-26T15:44:08.838Z,22.10
2018-09-26T15:46:35.463Z,22.10
2018-09-26T15:49:01.998Z,22.10
2018-09-26T15:51:28.609Z,22.10
2018-09-26T15:53:55.125Z,22.10
2018-09-26T15:56:21.646Z,22.10
2018-09-26T15:58:48.394Z,22.10
2018-09-26T16:01:14.938Z,22.10
2018-09-26T16:03:41.488Z,22.10
2018-09-26T16:06:07.992Z,22.10
2018-09-26T16:08:34.467Z,22.10
2018-09-26T16:11:00.902Z,22.10
2018-09-26T16:13:27.411Z,22.10
2018-09-26T16:15:53.887Z,22.10
2018-09-26T16:18:20.497Z,22.10
2018-09-26T16:20:47.027Z,22.10
2018-09-26T16:23:13.621Z,22.10
2018-09-26T16:25:40.186Z,22.10
2018-09-26T16:28:06.631Z,22.10
2018-09-26T16:30:33.106Z,22.10
2018-09-26T16:32:59.650Z,22.10
2018-09-26T16:35:26.170Z,22.10
2018-09-26T16:37:52.640Z,22.10
2018-09-26T16:40:19.189Z,22.10
2018-09-26T16:42:45.809Z,22.10
2018-09-26T16:45:12.334Z,22.10
2018-09-26T16:47:38.770Z,22.10
2018-09-26T16:50:05.380Z,22.10
2018-09-26T16:52:31.909Z,22.10
2018-09-26T16:54:59.339Z,22.10
2018-09-26T16:57:25.795Z,22.10
2018-09-26T16:59:52.245Z,22.10
2018-09-26T17:02:18.743Z,22.10
2018-09-26T17:04:45.241Z,22.10
2018-09-26T17:07:11.745Z,22.00
2018-09-26T17:09:38.238Z,22.00
2018-09-26T17:12:05.011Z,22.00
2018-09-26T17:14:31.475Z,22.00
2018-09-26T17:16:57.954Z,22.00
2018-09-26T17:19:24.511Z,22.00
2018-09-26T17:21:50.890Z,22.00
2018-09-26T17:24:17.533Z,22.00
2018-09-26T17:26:44.015Z,22.00
2018-09-26T17:29:10.513Z,22.00
2018-09-26T17:31:36.992Z,22.00
2018-09-26T17:34:03.490Z,22.00
2018-09-26T17:36:29.946Z,22.00
2018-09-26T17:38:56.446Z,22.00
2018-09-26T17:41:22.912Z,22.00
2018-09-26T17:43:49.419Z,22.00
2018-09-26T17:46:16.009Z,22.00
2018-09-26T17:48:42.537Z,22.00
2018-09-26T17:51:09.016Z,22.00
2018-09-26T17:53:35.518Z,22.00
2018-09-26T17:56:02.028Z,22.00
2018-09-26T17:58:28.495Z,22.00
2018-09-26T18:00:54.983Z,21.90
2018-09-26T18:03:21.436Z,22.00
2018-09-26T18:05:47.914Z,22.00
2018-09-26T18:08:14.391Z,22.00
2018-09-26T18:10:40.943Z,21.90
2018-09-26T18:13:07.442Z,22.00
2018-09-26T18:15:33.963Z,22.00
2018-09-26T18:18:00.507Z,21.90
2018-09-26T18:20:26.999Z,22.00
2018-09-26T18:22:53.468Z,22.00
2018-09-26T18:25:20.012Z,21.90
2018-09-26T18:27:46.561Z,21.90
2018-09-26T18:30:13.035Z,21.90
2018-09-26T18:32:39.598Z,22.00
2018-09-26T18:35:06.060Z,21.90
2018-09-26T18:37:32.584Z,21.90
2018-09-26T18:39:59.055Z,21.90
2018-09-26T18:42:25.544Z,22.00
2018-09-26T18:44:52.343Z,21.90
2018-09-26T18:47:18.857Z,21.90
2018-09-26T18:49:45.346Z,22.00
2018-09-26T18:52:11.854Z,22.00
2018-09-26T18:54:38.896Z,21.90
2018-09-26T18:57:05.422Z,21.90
2018-09-26T18:59:31.887Z,21.90
2018-09-26T19:01:58.342Z,21.90
2018-09-26T19:04:24.920Z,21.90
2018-09-26T19:06:51.455Z,21.90
2018-09-26T19:09:17.986Z,21.80
2018-09-26T19:11:44.542Z,21.90
2018-09-26T19:14:10.993Z,21.90
2018-09-26T19:16:37.542Z,21.90
2018-09-26T19:19:04.079Z,21.90
2018-09-26T19:21:30.684Z,21.90
2018-09-26T19:23:57.213Z,21.90
2018-09-26T19:26:24.613Z,21.90
2018-09-26T19:28:51.125Z,21.90
2018-09-26T19:31:17.577Z,21.90
2018-09-26T19:33:44.097Z,21.90
2018-09-26T19:36:10.677Z,21.90
2018-09-26T19:38:38.930Z,21.90
2018-09-26T19:41:05.438Z,21.90
2018-09-26T19:43:31.951Z,21.90
2018-09-26T19:45:59.014Z,21.90
2018-09-26T19:48:25.495Z,21.80
2018-09-26T19:50:52.002Z,21.80
2018-09-26T19:53:18.562Z,21.80
2018-09-26T19:55:45.080Z,21.80
2018-09-26T19:58:11.585Z,21.80
2018-09-26T20:00:38.068Z,21.80
2018-09-26T20:03:04.567Z,21.80
2018-09-26T20:05:31.083Z,21.80
2018-09-26T20:07:57.589Z,21.80
2018-09-26T20:10:24.719Z,21.80
2018-09-26T20:12:51.112Z,21.80
2018-09-26T20:15:17.737Z,21.80
2018-09-26T20:17:44.233Z,21.80
2018-09-26T20:20:10.731Z,21.80
2018-09-26T20:22:37.197Z,21.80
2018-09-26T20:25:03.719Z,21.80
2018-09-26T20:27:30.180Z,21.80
2018-09-26T20:29:56.692Z,21.80
2018-09-26T20:32:23.133Z,21.80
2018-09-26T20:34:49.645Z,21.80
2018-09-26T20:37:16.121Z,21.80
2018-09-26T20:39:42.637Z,21.80
2018-09-26T20:42:09.181Z,21.80
2018-09-26T20:44:36.111Z,21.80
2018-09-26T20:47:02.619Z,21.80
2018-09-26T20:49:29.142Z,21.80
2018-09-26T20:51:55.709Z,21.80
2018-09-26T20:54:22.295Z,21.80
2018-09-26T20:56:48.792Z,21.80
2018-09-26T20:59:15.298Z,21.80
2018-09-26T21:01:42.294Z,21.80
2018-09-26T21:04:08.800Z,21.80
2018-09-26T21:06:35.281Z,21.80
2018-09-26T21:09:01.813Z,21.80
2018-09-26T21:11:28.414Z,21.80
2018-09-26T21:13:54.983Z,21.80
2018-09-26T21:16:21.489Z,21.70
2018-09-26T21:18:48.113Z,21.80
2018-09-26T21:21:14.737Z,21.80
2018-09-26T21:23:41.245Z,21.70
2018-09-26T21:26:08.063Z,21.80
2018-09-26T21:28:34.561Z,21.70
2018-09-26T21:31:01.032Z,21.70
2018-09-26T21:33:27.518Z,21.70
2018-09-26T21:35:54.199Z,21.70
2018-09-26T21:38:20.741Z,21.70
2018-09-26T21:40:47.321Z,21.70
2018-09-26T21:43:13.813Z,21.70
2018-09-26T21:45:40.456Z,21.70
2018-09-26T21:48:06.980Z,21.70
2018-09-26T21:50:33.419Z,21.70
2018-09-26T21:52:59.962Z,21.70
2018-09-26T21:55:26.443Z,21.70
2018-09-26T21:57:52.888Z,21.70
2018-09-26T22:00:19.373Z,21.70
2018-09-26T22:02:45.801Z,21.70
2018-09-26T22:05:12.518Z,21.70
2018-09-26T22:07:38.910Z,21.70
2018-09-26T22:10:05.329Z,21.70
2018-09-26T22:12:31.758Z,21.70
2018-09-26T22:14:58.337Z,21.70
2018-09-26T22:17:24.747Z,21.70
2018-09-26T22:19:51.129Z,21.70
2018-09-26T22:22:17.530Z,21.70
2018-09-26T22:24:43.921Z,21.70
2018-09-26T22:27:10.322Z,21.70
2018-09-26T22:29:36.736Z,21.70
2018-09-26T22:32:03.137Z,21.70
2018-09-26T22:34:29.523Z,21.60
2018-09-26T22:36:55.939Z,21.70
2018-09-26T22:39:22.335Z,21.70
2018-09-26T22:41:48.748Z,21.70
2018-09-26T22:44:15.145Z,21.70
2018-09-26T22:46:41.543Z,21.70
2018-09-26T22:49:07.944Z,21.70
2018-09-26T22:51:34.335Z,21.60
2018-09-26T22:54:00.740Z,21.60
2018-09-26T22:56:27.167Z,21.60
2018-09-26T22:58:53.582Z,21.60
2018-09-26T23:01:19.986Z,21.60
2018-09-26T23:03:46.372Z,21.60
2018-09-26T23:06:12.768Z,21.60
2018-09-26T23:08:39.166Z,21.60
2018-09-26T23:11:05.560Z,21.60
2018-09-26T23:13:31.943Z,21.60
2018-09-26T23:15:58.339Z,21.60
2018-09-26T23:18:24.727Z,21.60
2018-09-26T23:20:51.224Z,21.60
2018-09-26T23:23:17.677Z,21.60
2018-09-26T23:25:44.142Z,21.60
2018-09-26T23:28:10.692Z,21.60
2018-09-26T23:30:37.122Z,21.60
2018-09-26T23:33:03.570Z,21.60
2018-09-26T23:35:29.974Z,21.60
2018-09-26T23:37:56.363Z,21.60
2018-09-26T23:40:22.765Z,21.60
2018-09-26T23:42:49.176Z,21.60
2018-09-26T23:45:15.571Z,21.60
2018-09-26T23:47:42.022Z,21.60
2018-09-26T23:50:08.419Z,21.60
2018-09-26T23:52:34.831Z,21.60
2018-09-26T23:55:01.240Z,21.60
2018-09-26T23:57:27.641Z,21.60
2018-09-26T23:59:54.025Z,21.50
